createdAt,value
2023-03-25T00:01:20.172Z,99.92
2023-03-25T00:03:51.214Z,100.00
2023-03-25T00:06:20.313Z,100.00
2023-03-25T00:08:48.616Z,100.00
2023-03-25T00:11:16.867Z,100.00
2023-03-25T00:13:45.041Z,100.00
2023-03-25T00:16:13.278Z,100.00
2023-03-25T00:18:41.677Z,100.00
2023-03-25T00:21:12.692Z,100.00
2023-03-25T00:23:41.747Z,100.00
2023-03-25T00:26:11.979Z,100.00
2023-03-25T00:28:40.212Z,100.00
2023-03-25T00:31:13.805Z,100.00
2023-03-25T00:33:42.738Z,100.00
2023-03-25T00:36:13.994Z,100.00
2023-03-25T00:38:43.765Z,100.00
2023-03-25T00:41:18.385Z,100.00
2023-03-25T00:43:46.668Z,100.00
2023-03-25T00:46:15.066Z,100.00
2023-03-25T00:48:43.944Z,100.00
2023-03-25T00:51:13.985Z,100.00
2023-03-25T00:53:42.208Z,100.00
2023-03-25T00:56:12.440Z,100.00
2023-03-25T00:58:40.966Z,100.00
2023-03-25T01:01:15.787Z,100.00
2023-03-25T01:03:44.960Z,100.00
2023-03-25T01:06:16.905Z,100.00
2023-03-25T01:08:45.186Z,100.00
2023-03-25T01:11:22.144Z,100.00
2023-03-25T01:13:51.774Z,100.00
2023-03-25T01:16:20.088Z,100.00
2023-03-25T01:18:49.123Z,100.00
2023-03-25T01:21:17.673Z,100.00
2023-03-25T01:23:46.204Z,100.00
2023-03-25T01:26:14.566Z,100.00
2023-03-25T01:28:43.771Z,100.00
2023-03-25T01:31:16.635Z,100.00
2023-03-25T01:33:44.964Z,100.00
2023-03-25T01:36:13.232Z,100.00
2023-03-25T01:38:42.864Z,100.00
2023-03-25T01:41:11.296Z,100.00
2023-03-25T01:43:39.845Z,100.00
2023-03-25T01:46:14.556Z,100.00
2023-03-25T01:48:45.212Z,100.00
2023-03-25T01:51:21.282Z,100.00
2023-03-25T01:53:53.581Z,100.00
2023-03-25T01:56:31.007Z,100.00
2023-03-25T01:59:06.505Z,100.00
2023-03-25T02:01:36.986Z,100.00
2023-03-25T02:04:10.249Z,100.00
2023-03-25T02:06:54.165Z,100.00
2023-03-25T02:09:26.315Z,100.00
2023-03-25T02:11:55.126Z,100.00
2023-03-25T02:14:27.483Z,100.00
2023-03-25T02:17:01.717Z,100.00
2023-03-25T02:20:09.534Z,100.00
2023-03-25T02:22:42.208Z,100.00
2023-03-25T02:25:36.382Z,100.00
2023-03-25T02:28:41.967Z,100.00
2023-03-25T02:31:38.167Z,100.00
2023-03-25T02:34:29.448Z,100.00
2023-03-25T02:37:06.967Z,100.00
2023-03-25T02:39:47.556Z,100.00
2023-03-25T02:42:15.953Z,100.00
2023-03-25T02:44:53.577Z,100.00
2023-03-25T02:47:26.835Z,100.00
2023-03-25T02:50:01.157Z,100.00
2023-03-25T02:52:38.390Z,100.00
2023-03-25T02:55:10.725Z,100.00
2023-03-25T02:57:42.336Z,100.00
2023-03-25T03:00:16.024Z,100.00
2023-03-25T03:03:04.841Z,100.00
2023-03-25T03:05:49.105Z,100.00
2023-03-25T03:08:31.294Z,100.00
2023-03-25T03:11:14.685Z,100.00
2023-03-25T03:13:45.732Z,100.00
2023-03-25T03:16:33.672Z,100.00
2023-03-25T03:19:24.449Z,100.00
2023-03-25T03:22:17.858Z,100.00
2023-03-25T03:25:22.233Z,100.00
2023-03-25T03:28:09.317Z,100.00
2023-03-25T03:30:49.582Z,100.00
2023-03-25T03:33:41.264Z,100.00
2023-03-25T03:36:16.414Z,100.00
2023-03-25T03:38:51.589Z,100.00
2023-03-25T03:41:24.097Z,100.00
2023-03-25T03:43:58.527Z,100.00
2023-03-25T03:46:32.450Z,100.00
2023-03-25T03:49:06.246Z,100.00
2023-03-25T03:51:38.634Z,100.00
2023-03-25T03:54:14.195Z,100.00
2023-03-25T03:57:12.166Z,100.00
2023-03-25T03:59:52.552Z,100.00
2023-03-25T04:02:28.566Z,100.00
2023-03-25T04:05:01.005Z,100.00
2023-03-25T04:07:43.779Z,100.00
2023-03-25T04:10:29.966Z,100.00
2023-03-25T04:13:01.972Z,100.00
2023-03-25T04:15:30.387Z,100.00
2023-03-25T04:17:58.644Z,100.00
2023-03-25T04:20:30.087Z,100.00
2023-03-25T04:22:58.279Z,100.00
2023-03-25T04:25:26.788Z,100.00
2023-03-25T04:27:59.185Z,100.00
2023-03-25T04:30:29.397Z,100.00
2023-03-25T04:32:57.829Z,100.00
2023-03-25T04:35:26.300Z,100.00
2023-03-25T04:37:54.668Z,100.00
2023-03-25T04:40:26.035Z,100.00
2023-03-25T04:42:57.053Z,100.00
2023-03-25T04:45:26.361Z,100.00
2023-03-25T04:47:56.934Z,100.00
2023-03-25T04:50:29.942Z,100.00
2023-03-25T04:53:00.586Z,100.00
2023-03-25T04:55:30.270Z,100.00
2023-03-25T04:57:58.523Z,100.00
2023-03-25T05:00:27.410Z,100.00
2023-03-25T05:02:56.859Z,100.00
2023-03-25T05:05:25.765Z,100.00
2023-03-25T05:07:58.537Z,100.00
2023-03-25T05:10:29.807Z,100.00
2023-03-25T05:13:03.736Z,100.00
2023-03-25T05:15:35.778Z,100.00
2023-03-25T05:18:04.104Z,100.00
2023-03-25T05:20:35.333Z,100.00
2023-03-25T05:23:04.821Z,100.00
2023-03-25T05:25:34.616Z,100.00
2023-03-25T05:28:06.161Z,100.00
2023-03-25T05:30:39.443Z,100.00
2023-03-25T05:33:13.879Z,100.00
2023-03-25T05:35:43.297Z,100.00
2023-03-25T05:38:12.777Z,100.00
2023-03-25T05:40:41.140Z,100.00
2023-03-25T05:43:09.340Z,100.00
2023-03-25T05:45:37.677Z,100.00
2023-03-25T05:48:06.714Z,100.00
2023-03-25T05:50:37.138Z,100.00
2023-03-25T05:53:05.679Z,100.00
2023-03-25T05:55:33.922Z,100.00
2023-03-25T05:58:07.397Z,100.00
2023-03-25T06:00:37.261Z,100.00
2023-03-25T06:03:08.728Z,100.00
2023-03-25T06:05:40.123Z,100.00
2023-03-25T06:08:08.741Z,100.00
2023-03-25T06:10:37.001Z,100.00
2023-03-25T06:13:05.273Z,100.00
2023-03-25T06:15:39.614Z,100.00
2023-03-25T06:18:07.867Z,100.00
2023-03-25T06:20:36.148Z,100.00
2023-03-25T06:23:04.266Z,100.00
2023-03-25T06:25:32.572Z,100.00
2023-03-25T06:28:03.766Z,100.00
2023-03-25T06:30:32.113Z,100.00
2023-03-25T06:33:03.466Z,100.00
2023-03-25T06:35:32.200Z,100.00
2023-03-25T06:38:01.454Z,100.00
2023-03-25T06:40:41.558Z,100.00
2023-03-25T06:43:09.817Z,100.00
2023-03-25T06:45:38.040Z,100.00
2023-03-25T06:48:15.975Z,100.00
2023-03-25T06:50:45.676Z,100.00
2023-03-25T06:53:13.881Z,100.00
2023-03-25T06:55:42.076Z,100.00
2023-03-25T06:58:10.515Z,100.00
2023-03-25T07:00:38.846Z,100.00
2023-03-25T07:03:07.084Z,100.00
2023-03-25T07:05:35.445Z,100.00
2023-03-25T07:08:03.643Z,100.00
2023-03-25T07:10:32.600Z,100.00
2023-03-25T07:13:00.750Z,100.00
2023-03-25T07:15:29.037Z,100.00
2023-03-25T07:17:57.302Z,100.00
2023-03-25T07:20:25.708Z,100.00
2023-03-25T07:22:55.427Z,100.00
2023-03-25T07:25:23.760Z,100.00
2023-03-25T07:27:51.951Z,100.00
2023-03-25T07:30:20.610Z,99.58
2023-03-25T07:32:48.922Z,97.73
2023-03-25T07:35:17.090Z,91.85
2023-03-25T07:37:45.703Z,88.30
2023-03-25T07:40:13.913Z,87.56
2023-03-25T07:42:42.213Z,83.65
2023-03-25T07:45:44.459Z,76.84
2023-03-25T07:48:24.619Z,80.08
2023-03-25T07:50:53.046Z,76.29
2023-03-25T07:53:21.302Z,77.58
2023-03-25T07:55:52.512Z,75.17
2023-03-25T07:58:21.072Z,72.65
2023-03-25T08:00:49.261Z,69.77
2023-03-25T08:03:17.533Z,69.95
2023-03-25T08:05:47.989Z,69.28
2023-03-25T08:08:16.572Z,68.58
2023-03-25T08:10:46.638Z,71.52
2023-03-25T08:13:15.237Z,71.51
2023-03-25T08:15:44.180Z,72.16
2023-03-25T08:18:12.394Z,73.34
2023-03-25T08:20:41.356Z,75.16
2023-03-25T08:23:11.153Z,76.27
2023-03-25T08:25:43.819Z,72.95
2023-03-25T08:28:11.985Z,71.94
2023-03-25T08:30:40.242Z,68.67
2023-03-25T08:33:10.268Z,65.80
2023-03-25T08:35:39.468Z,63.93
2023-03-25T08:38:07.879Z,61.11
2023-03-25T08:40:36.707Z,58.96
2023-03-25T08:43:06.890Z,57.43
2023-03-25T08:45:36.710Z,58.21
2023-03-25T08:48:05.093Z,59.80
2023-03-25T08:50:33.292Z,61.43
2023-03-25T08:53:01.511Z,60.11
2023-03-25T08:55:29.707Z,59.05
2023-03-25T08:58:01.681Z,56.16
2023-03-25T09:00:29.853Z,54.53
2023-03-25T09:02:59.373Z,50.59
2023-03-25T09:05:27.768Z,49.97
2023-03-25T09:07:56.300Z,48.46
2023-03-25T09:10:24.570Z,48.05
2023-03-25T09:12:53.076Z,48.14
2023-03-25T09:15:21.725Z,47.73
2023-03-25T09:17:50.083Z,47.93
2023-03-25T09:20:18.942Z,47.12
2023-03-25T09:22:47.469Z,44.67
2023-03-25T09:25:15.759Z,43.58
2023-03-25T09:27:43.936Z,42.22
2023-03-25T09:30:13.159Z,40.41
2023-03-25T09:32:41.734Z,39.22
2023-03-25T09:35:10.144Z,38.80
2023-03-25T09:37:38.315Z,37.83
2023-03-25T09:40:08.389Z,36.87
2023-03-25T09:42:48.421Z,36.11
2023-03-25T09:45:29.732Z,35.92
2023-03-25T09:48:19.114Z,35.95
2023-03-25T09:50:48.301Z,35.28
2023-03-25T09:53:22.516Z,34.19
2023-03-25T09:55:51.824Z,34.76
2023-03-25T09:58:40.188Z,34.34
2023-03-25T10:01:27.025Z,34.75
2023-03-25T10:04:02.811Z,32.70
2023-03-25T10:06:36.052Z,32.27
2023-03-25T10:09:21.042Z,31.35
2023-03-25T10:12:02.885Z,31.26
2023-03-25T10:14:55.963Z,31.04
2023-03-25T10:17:56.900Z,32.26
2023-03-25T10:20:50.033Z,32.68
2023-03-25T10:23:33.299Z,32.87
2023-03-25T10:26:10.540Z,32.13
2023-03-25T10:28:44.395Z,31.90
2023-03-25T10:31:18.176Z,31.59
2023-03-25T10:33:54.469Z,30.11
2023-03-25T10:36:34.087Z,29.62
2023-03-25T10:39:11.126Z,29.36
2023-03-25T10:41:43.562Z,29.45
2023-03-25T10:44:12.262Z,28.94
2023-03-25T10:46:48.611Z,29.60
2023-03-25T10:49:22.938Z,29.67
2023-03-25T10:51:57.685Z,29.91
2023-03-25T10:54:33.100Z,29.05
2023-03-25T10:57:08.568Z,29.10
2023-03-25T10:59:53.582Z,29.13
2023-03-25T11:02:28.568Z,28.18
2023-03-25T11:05:01.574Z,28.12
2023-03-25T11:07:34.941Z,28.24
2023-03-25T11:10:09.308Z,28.17
2023-03-25T11:12:43.185Z,28.76
2023-03-25T11:15:26.983Z,30.08
2023-03-25T11:18:08.345Z,30.72
2023-03-25T11:20:46.080Z,31.31
2023-03-25T11:23:19.852Z,32.69
2023-03-25T11:25:48.490Z,33.99
2023-03-25T11:28:31.820Z,34.98
2023-03-25T11:31:33.704Z,35.44
2023-03-25T11:34:10.863Z,35.50
2023-03-25T11:36:55.455Z,35.83
2023-03-25T11:39:23.577Z,36.16
2023-03-25T11:41:52.580Z,35.72
2023-03-25T11:44:31.047Z,35.26
2023-03-25T11:47:06.374Z,34.11
2023-03-25T11:49:38.746Z,33.54
2023-03-25T11:52:20.174Z,33.30
2023-03-25T11:54:49.165Z,33.50
2023-03-25T11:57:22.823Z,33.24
2023-03-25T12:00:01.633Z,33.11
2023-03-25T12:02:41.287Z,33.07
2023-03-25T12:05:12.503Z,32.33
2023-03-25T12:07:52.351Z,32.24
2023-03-25T12:10:35.415Z,32.72
2023-03-25T12:13:14.940Z,33.13
2023-03-25T12:15:51.115Z,34.08
2023-03-25T12:18:57.645Z,34.28
2023-03-25T12:21:34.931Z,34.91
2023-03-25T12:24:38.915Z,34.51
2023-03-25T12:27:16.585Z,34.45
2023-03-25T12:30:08.098Z,33.38
2023-03-25T12:32:40.771Z,33.56
2023-03-25T12:35:38.609Z,33.02
2023-03-25T12:38:29.192Z,32.13
2023-03-25T12:41:35.032Z,31.46
2023-03-25T12:44:35.286Z,31.16
2023-03-25T12:47:26.048Z,30.41
2023-03-25T12:50:13.635Z,30.20
2023-03-25T12:53:11.965Z,29.98
2023-03-25T12:55:50.908Z,30.21
2023-03-25T12:58:55.624Z,30.43
2023-03-25T13:01:42.566Z,29.39
2023-03-25T13:04:10.824Z,28.97
2023-03-25T13:06:46.339Z,28.54
2023-03-25T13:09:55.202Z,28.95
2023-03-25T13:12:23.373Z,29.18
2023-03-25T13:15:05.169Z,28.56
2023-03-25T13:17:50.074Z,29.01
2023-03-25T13:20:19.938Z,29.65
2023-03-25T13:22:53.345Z,30.87
2023-03-25T13:25:43.053Z,31.64
2023-03-25T13:28:16.308Z,32.37
2023-03-25T13:30:47.313Z,33.42
2023-03-25T13:33:33.292Z,33.74
2023-03-25T13:36:06.032Z,33.68
2023-03-25T13:38:57.705Z,34.11
2023-03-25T13:41:38.963Z,34.38
2023-03-25T13:44:31.813Z,34.17
2023-03-25T13:47:32.279Z,34.41
2023-03-25T13:50:00.469Z,34.39
2023-03-25T13:52:37.488Z,34.63
2023-03-25T13:55:23.022Z,34.82
2023-03-25T13:58:25.440Z,34.85
2023-03-25T14:01:21.145Z,35.26
2023-03-25T14:04:22.877Z,35.46
2023-03-25T14:06:54.360Z,35.47
2023-03-25T14:09:43.116Z,35.70
2023-03-25T14:12:37.433Z,35.99
2023-03-25T14:15:11.698Z,36.42
2023-03-25T14:17:40.937Z,37.08
2023-03-25T14:20:12.605Z,36.12
2023-03-25T14:22:43.742Z,35.97
2023-03-25T14:25:33.386Z,35.91
2023-03-25T14:28:05.394Z,36.02
2023-03-25T14:30:34.390Z,36.14
2023-03-25T14:33:04.255Z,36.63
2023-03-25T14:35:35.100Z,36.69
2023-03-25T14:38:06.854Z,37.06
2023-03-25T14:41:01.429Z,37.20
2023-03-25T14:43:40.631Z,37.20
2023-03-25T14:46:13.211Z,37.31
2023-03-25T14:48:54.777Z,37.20
2023-03-25T14:51:26.093Z,37.54
2023-03-25T14:54:03.607Z,37.70
2023-03-25T14:56:38.183Z,38.12
2023-03-25T14:59:15.809Z,38.62
2023-03-25T15:01:45.967Z,38.53
2023-03-25T15:04:39.355Z,38.81
2023-03-25T15:07:18.375Z,39.27
2023-03-25T15:09:52.743Z,39.34
2023-03-25T15:12:26.597Z,39.73
2023-03-25T15:15:03.200Z,40.24
2023-03-25T15:17:49.593Z,40.71
2023-03-25T15:20:23.956Z,40.78
2023-03-25T15:23:34.893Z,41.07
2023-03-25T15:26:05.180Z,41.58
2023-03-25T15:29:14.778Z,41.94
2023-03-25T15:32:07.660Z,42.52
2023-03-25T15:34:54.365Z,42.80
2023-03-25T15:37:45.711Z,43.43
2023-03-25T15:40:32.369Z,44.34
2023-03-25T15:43:06.402Z,44.68
2023-03-25T15:45:34.612Z,45.40
2023-03-25T15:48:45.858Z,45.82
2023-03-25T15:51:37.373Z,46.96
2023-03-25T15:54:05.907Z,47.71
2023-03-25T15:56:40.257Z,47.90
2023-03-25T15:59:30.444Z,48.61
2023-03-25T16:02:02.947Z,48.91
2023-03-25T16:04:47.935Z,49.80
2023-03-25T16:07:19.987Z,51.23
2023-03-25T16:09:49.430Z,52.50
2023-03-25T16:12:21.829Z,53.51
2023-03-25T16:14:52.574Z,55.22
2023-03-25T16:17:27.440Z,56.30
2023-03-25T16:19:57.226Z,57.78
2023-03-25T16:22:29.746Z,60.50
2023-03-25T16:25:14.369Z,63.87
2023-03-25T16:27:45.828Z,65.34
2023-03-25T16:30:33.340Z,67.83
2023-03-25T16:33:08.645Z,70.23
2023-03-25T16:35:41.267Z,73.97
2023-03-25T16:38:15.194Z,75.04
2023-03-25T16:40:44.038Z,77.12
2023-03-25T16:43:27.506Z,76.39
2023-03-25T16:46:02.219Z,75.75
2023-03-25T16:48:42.755Z,74.69
2023-03-25T16:51:22.895Z,73.97
2023-03-25T16:53:56.187Z,72.98
2023-03-25T16:56:28.170Z,72.86
2023-03-25T16:59:05.338Z,73.75
2023-03-25T17:01:39.689Z,74.31
2023-03-25T17:04:19.522Z,74.20
2023-03-25T17:06:56.689Z,72.92
2023-03-25T17:09:34.352Z,71.64
2023-03-25T17:12:08.045Z,71.19
2023-03-25T17:14:38.179Z,70.21
2023-03-25T17:17:21.665Z,70.08
2023-03-25T17:19:52.661Z,73.72
2023-03-25T17:22:28.399Z,74.87
2023-03-25T17:24:59.023Z,76.14
2023-03-25T17:27:34.506Z,76.68
2023-03-25T17:30:28.785Z,76.15
2023-03-25T17:33:34.304Z,76.31
2023-03-25T17:36:08.174Z,76.50
2023-03-25T17:38:42.057Z,75.38
2023-03-25T17:41:11.596Z,76.66
2023-03-25T17:43:49.077Z,76.64
2023-03-25T17:46:23.172Z,75.50
2023-03-25T17:48:55.350Z,75.36
2023-03-25T17:51:29.454Z,76.77
2023-03-25T17:53:57.878Z,76.98
2023-03-25T17:56:28.356Z,78.45
2023-03-25T17:59:05.799Z,78.43
2023-03-25T18:01:35.419Z,78.90
2023-03-25T18:04:04.623Z,78.24
2023-03-25T18:06:32.844Z,78.50
2023-03-25T18:09:01.054Z,79.05
2023-03-25T18:11:29.313Z,80.33
2023-03-25T18:13:57.571Z,80.88
2023-03-25T18:16:26.081Z,81.72
2023-03-25T18:18:54.379Z,81.58
2023-03-25T18:21:23.633Z,82.21
2023-03-25T18:23:52.574Z,82.52
2023-03-25T18:26:21.037Z,81.50
2023-03-25T18:28:49.242Z,81.29
2023-03-25T18:31:18.003Z,80.21
2023-03-25T18:33:51.420Z,80.48
2023-03-25T18:36:19.706Z,80.98
2023-03-25T18:38:48.122Z,80.68
2023-03-25T18:41:17.621Z,79.86
2023-03-25T18:43:45.876Z,81.09
2023-03-25T18:46:15.191Z,80.59
2023-03-25T18:48:43.482Z,80.17
2023-03-25T18:51:13.837Z,81.34
2023-03-25T18:53:42.116Z,80.69
2023-03-25T18:56:10.662Z,80.60
2023-03-25T18:58:38.884Z,80.93
2023-03-25T19:01:10.288Z,80.90
2023-03-25T19:03:39.220Z,82.30
2023-03-25T19:06:10.892Z,80.31
2023-03-25T19:08:40.616Z,81.98
2023-03-25T19:11:19.839Z,83.67
2023-03-25T19:13:51.209Z,84.85
2023-03-25T19:16:19.857Z,85.45
2023-03-25T19:18:48.930Z,85.78
2023-03-25T19:21:19.512Z,88.93
2023-03-25T19:23:48.578Z,92.38
2023-03-25T19:26:16.882Z,91.86
2023-03-25T19:28:45.065Z,91.66
2023-03-25T19:31:17.247Z,91.18
2023-03-25T19:33:45.488Z,91.81
2023-03-25T19:36:16.635Z,90.79
2023-03-25T19:38:45.182Z,91.39
2023-03-25T19:41:15.793Z,94.55
2023-03-25T19:43:43.926Z,97.74
2023-03-25T19:46:12.384Z,98.34
2023-03-25T19:48:40.530Z,98.71
2023-03-25T19:51:09.001Z,99.85
2023-03-25T19:53:37.366Z,100.00
2023-03-25T19:56:06.088Z,100.00
2023-03-25T19:58:35.004Z,100.00
2023-03-25T20:01:04.226Z,100.00
2023-03-25T20:03:33.812Z,100.00
2023-03-25T20:06:03.073Z,100.00
2023-03-25T20:08:32.234Z,100.00
2023-03-25T20:11:01.388Z,100.00
2023-03-25T20:13:29.723Z,100.00
2023-03-25T20:15:58.293Z,100.00
2023-03-25T20:18:26.567Z,100.00
2023-03-25T20:20:55.184Z,100.00
2023-03-25T20:23:23.440Z,100.00
2023-03-25T20:25:52.620Z,100.00
2023-03-25T20:28:20.876Z,100.00
2023-03-25T20:30:49.127Z,100.00
2023-03-25T20:33:18.853Z,100.00
2023-03-25T20:35:47.145Z,100.00
2023-03-25T20:38:16.085Z,100.00
2023-03-25T20:40:45.210Z,100.00
2023-03-25T20:43:15.018Z,100.00
2023-03-25T20:45:43.976Z,100.00
2023-03-25T20:48:12.325Z,100.00
2023-03-25T20:50:40.837Z,100.00
2023-03-25T20:53:09.246Z,100.00
2023-03-25T20:55:37.608Z,100.00
2023-03-25T20:58:06.418Z,100.00
2023-03-25T21:00:35.214Z,100.00
2023-03-25T21:03:03.739Z,100.00
2023-03-25T21:05:32.720Z,100.00
2023-03-25T21:08:00.922Z,100.00
2023-03-25T21:10:29.142Z,100.00
2023-03-25T21:12:57.491Z,100.00
2023-03-25T21:15:26.381Z,100.00
2023-03-25T21:17:54.584Z,100.00
2023-03-25T21:20:24.106Z,100.00
2023-03-25T21:22:52.754Z,100.00
2023-03-25T21:25:21.231Z,100.00
2023-03-25T21:27:49.815Z,100.00
2023-03-25T21:30:18.127Z,100.00
2023-03-25T21:32:46.383Z,100.00
2023-03-25T21:35:15.300Z,100.00
2023-03-25T21:37:44.484Z,100.00
2023-03-25T21:40:13.976Z,100.00
2023-03-25T21:42:43.266Z,100.00
2023-03-25T21:45:14.034Z,100.00
2023-03-25T21:47:43.814Z,100.00
2023-03-25T21:50:14.231Z,100.00
2023-03-25T21:52:48.803Z,100.00
2023-03-25T21:55:17.710Z,100.00
2023-03-25T21:57:47.820Z,100.00
2023-03-25T22:00:18.121Z,100.00
2023-03-25T22:02:47.675Z,100.00
2023-03-25T22:05:17.459Z,100.00
2023-03-25T22:07:45.987Z,100.00
2023-03-25T22:10:14.408Z,100.00
2023-03-25T22:12:42.758Z,100.00
2023-03-25T22:15:12.058Z,100.00
2023-03-25T22:17:40.553Z,100.00
2023-03-25T22:20:10.406Z,100.00
2023-03-25T22:22:38.586Z,100.00
2023-03-25T22:25:08.294Z,100.00
2023-03-25T22:27:37.220Z,100.00
2023-03-25T22:30:08.058Z,100.00
2023-03-25T22:32:36.719Z,100.00
2023-03-25T22:35:05.524Z,100.00
2023-03-25T22:37:37.090Z,100.00
2023-03-25T22:40:08.851Z,100.00
2023-03-25T22:42:37.234Z,100.00
2023-03-25T22:45:06.634Z,100.00
2023-03-25T22:47:35.186Z,100.00
2023-03-25T22:50:03.611Z,100.00
2023-03-25T22:52:31.785Z,100.00
2023-03-25T22:54:59.998Z,100.00
2023-03-25T22:57:28.525Z,100.00
2023-03-25T22:59:56.664Z,100.00
2023-03-25T23:02:24.949Z,100.00
2023-03-25T23:04:53.294Z,100.00
2023-03-25T23:07:21.631Z,100.00
2023-03-25T23:09:49.753Z,100.00
2023-03-25T23:12:23.232Z,100.00
2023-03-25T23:14:55.657Z,100.00
2023-03-25T23:17:25.602Z,100.00
2023-03-25T23:19:53.800Z,100.00
2023-03-25T23:22:22.425Z,100.00
2023-03-25T23:24:50.790Z,100.00
2023-03-25T23:27:18.937Z,100.00
2023-03-25T23:29:47.267Z,100.00
2023-03-25T23:32:16.660Z,100.00
2023-03-25T23:34:45.554Z,100.00
2023-03-25T23:37:13.803Z,100.00
2023-03-25T23:39:42.226Z,100.00
2023-03-25T23:42:10.521Z,100.00
2023-03-25T23:44:38.761Z,100.00
2023-03-25T23:47:07.014Z,100.00
2023-03-25T23:49:38.545Z,100.00
2023-03-25T23:52:11.743Z,100.00
2023-03-25T23:54:40.652Z,100.00
2023-03-25T23:57:08.953Z,100.00
2023-03-25T23:59:37.301Z,100.00
